sensor_id;sensor_type;location;lat;lon;timestamp;pressure;altitude;pressure_sealevel;temperature;humidity
55490;BME280;44029;52.956;4.772;2022-08-19T00:00:13;101571.56;;;20.39;100.00
55490;BME280;44029;52.956;4.772;2022-08-19T00:02:41;101577.66;;;20.41;100.00
55490;BME280;44029;52.956;4.772;2022-08-19T00:05:07;101575.59;;;20.27;100.00
55490;BME280;44029;52.956;4.772;2022-08-19T00:07:33;101577.69;;;20.17;100.00
55490;BME280;44029;52.956;4.772;2022-08-19T00:09:58;101571.13;;;20.07;100.00
55490;BME280;44029;52.956;4.772;2022-08-19T00:12:23;101582.47;;;20.11;100.00
55490;BME280;44029;52.956;4.772;2022-08-19T00:14:49;101584.84;;;19.99;100.00
55490;BME280;44029;52.956;4.772;2022-08-19T00:17:14;101586.50;;;20.00;100.00
55490;BME280;44029;52.956;4.772;2022-08-19T00:19:39;101583.19;;;19.98;100.00
55490;BME280;44029;52.956;4.772;2022-08-19T00:22:05;101592.16;;;19.89;100.00
55490;BME280;44029;52.956;4.772;2022-08-19T00:24:31;101586.78;;;19.74;100.00
55490;BME280;44029;52.956;4.772;2022-08-19T00:26:57;101595.59;;;19.81;100.00
55490;BME280;44029;52.956;4.772;2022-08-19T00:29:24;101601.94;;;19.87;100.00
55490;BME280;44029;52.956;4.772;2022-08-19T00:31:51;101593.84;;;19.91;100.00
55490;BME280;44029;52.956;4.772;2022-08-19T00:34:20;101584.72;;;19.85;100.00
55490;BME280;44029;52.956;4.772;2022-08-19T00:36:46;101589.56;;;19.74;100.00
55490;BME280;44029;52.956;4.772;2022-08-19T00:39:13;101589.00;;;19.77;100.00
55490;BME280;44029;52.956;4.772;2022-08-19T00:41:41;101577.50;;;19.84;100.00
55490;BME280;44029;52.956;4.772;2022-08-19T00:44:11;101574.97;;;19.87;100.00
55490;BME280;44029;52.956;4.772;2022-08-19T00:46:40;101565.56;;;19.83;100.00
55490;BME280;44029;52.956;4.772;2022-08-19T00:49:12;101568.91;;;19.80;100.00
55490;BME280;44029;52.956;4.772;2022-08-19T00:51:40;101569.06;;;19.65;100.00
55490;BME280;44029;52.956;4.772;2022-08-19T00:54:06;101570.44;;;19.67;100.00
55490;BME280;44029;52.956;4.772;2022-08-19T00:56:32;101576.25;;;19.71;100.00
55490;BME280;44029;52.956;4.772;2022-08-19T00:58:58;101564.09;;;19.62;100.00
55490;BME280;44029;52.956;4.772;2022-08-19T01:01:24;101576.56;;;19.64;100.00
55490;BME280;44029;52.956;4.772;2022-08-19T01:03:49;101575.75;;;19.64;100.00
55490;BME280;44029;52.956;4.772;2022-08-19T01:06:15;101579.06;;;19.66;100.00
55490;BME280;44029;52.956;4.772;2022-08-19T01:08:40;101583.78;;;19.65;100.00
55490;BME280;44029;52.956;4.772;2022-08-19T01:11:06;101582.38;;;19.68;100.00
55490;BME280;44029;52.956;4.772;2022-08-19T01:13:33;101581.81;;;19.71;100.00
55490;BME280;44029;52.956;4.772;2022-08-19T01:16:05;101573.25;;;19.62;100.00
55490;BME280;44029;52.956;4.772;2022-08-19T01:18:36;101574.09;;;19.63;100.00
55490;BME280;44029;52.956;4.772;2022-08-19T01:21:09;101566.22;;;19.70;100.00
55490;BME280;44029;52.956;4.772;2022-08-19T01:23:35;101564.97;;;19.57;100.00
55490;BME280;44029;52.956;4.772;2022-08-19T01:26:17;101561.78;;;19.69;100.00
55490;BME280;44029;52.956;4.772;2022-08-19T01:28:45;101555.81;;;19.57;100.00
55490;BME280;44029;52.956;4.772;2022-08-19T01:31:19;101560.47;;;19.61;100.00
55490;BME280;44029;52.956;4.772;2022-08-19T01:33:47;101554.16;;;19.56;100.00
55490;BME280;44029;52.956;4.772;2022-08-19T01:36:24;101551.56;;;19.64;100.00
55490;BME280;44029;52.956;4.772;2022-08-19T01:38:51;101565.78;;;19.58;100.00
55490;BME280;44029;52.956;4.772;2022-08-19T01:41:17;101563.88;;;19.58;100.00
55490;BME280;44029;52.956;4.772;2022-08-19T01:43:43;101561.13;;;19.53;100.00
55490;BME280;44029;52.956;4.772;2022-08-19T01:46:08;101570.34;;;19.48;100.00
55490;BME280;44029;52.956;4.772;2022-08-19T01:48:36;101576.38;;;19.56;100.00
55490;BME280;44029;52.956;4.772;2022-08-19T01:51:02;101576.97;;;19.53;100.00
55490;BME280;44029;52.956;4.772;2022-08-19T01:53:28;101573.31;;;19.57;100.00
55490;BME280;44029;52.956;4.772;2022-08-19T01:55:53;101575.84;;;19.54;100.00
55490;BME280;44029;52.956;4.772;2022-08-19T01:58:22;101579.66;;;19.63;100.00
55490;BME280;44029;52.956;4.772;2022-08-19T02:00:49;101580.63;;;19.48;100.00
55490;BME280;44029;52.956;4.772;2022-08-19T02:03:15;101587.00;;;19.48;100.00
55490;BME280;44029;52.956;4.772;2022-08-19T02:05:42;101584.50;;;19.47;100.00
55490;BME280;44029;52.956;4.772;2022-08-19T02:08:08;101582.34;;;19.44;100.00
55490;BME280;44029;52.956;4.772;2022-08-19T02:10:33;101577.88;;;19.43;100.00
55490;BME280;44029;52.956;4.772;2022-08-19T02:12:59;101581.53;;;19.43;100.00
55490;BME280;44029;52.956;4.772;2022-08-19T02:15:24;101585.97;;;19.39;100.00
55490;BME280;44029;52.956;4.772;2022-08-19T02:17:51;101585.38;;;19.47;100.00
55490;BME280;44029;52.956;4.772;2022-08-19T02:20:17;101582.63;;;19.42;100.00
55490;BME280;44029;52.956;4.772;2022-08-19T02:22:42;101582.63;;;19.42;100.00
55490;BME280;44029;52.956;4.772;2022-08-19T02:25:10;101582.81;;;19.51;100.00
55490;BME280;44029;52.956;4.772;2022-08-19T02:27:36;101575.09;;;19.43;100.00
55490;BME280;44029;52.956;4.772;2022-08-19T02:30:05;101572.28;;;19.48;100.00
55490;BME280;44029;52.956;4.772;2022-08-19T02:32:30;101567.94;;;19.37;100.00
55490;BME280;44029;52.956;4.772;2022-08-19T02:34:55;101564.59;;;19.40;100.00
55490;BME280;44029;52.956;4.772;2022-08-19T02:37:21;101571.56;;;19.37;100.00
55490;BME280;44029;52.956;4.772;2022-08-19T02:40:05;101573.75;;;19.40;100.00
55490;BME280;44029;52.956;4.772;2022-08-19T02:42:31;101571.00;;;19.35;100.00
55490;BME280;44029;52.956;4.772;2022-08-19T02:44:57;101574.56;;;19.41;100.00
55490;BME280;44029;52.956;4.772;2022-08-19T02:47:22;101572.97;;;19.35;100.00
55490;BME280;44029;52.956;4.772;2022-08-19T02:49:47;101577.75;;;19.29;100.00
55490;BME280;44029;52.956;4.772;2022-08-19T02:52:14;101575.75;;;19.35;100.00
55490;BME280;44029;52.956;4.772;2022-08-19T02:54:40;101571.00;;;19.35;100.00
55490;BME280;44029;52.956;4.772;2022-08-19T02:57:05;101578.84;;;19.28;100.00
55490;BME280;44029;52.956;4.772;2022-08-19T02:59:31;101568.63;;;19.23;100.00
55490;BME280;44029;52.956;4.772;2022-08-19T03:01:56;101570.28;;;19.24;100.00
55490;BME280;44029;52.956;4.772;2022-08-19T03:04:22;101572.47;;;19.27;100.00
55490;BME280;44029;52.956;4.772;2022-08-19T03:06:48;101567.22;;;19.26;100.00
55490;BME280;44029;52.956;4.772;2022-08-19T03:09:14;101562.97;;;19.34;100.00
55490;BME280;44029;52.956;4.772;2022-08-19T03:11:40;101567.78;;;19.23;100.00
55490;BME280;44029;52.956;4.772;2022-08-19T03:14:07;101559.88;;;19.40;100.00
55490;BME280;44029;52.956;4.772;2022-08-19T03:16:40;101558.44;;;19.43;100.00
55490;BME280;44029;52.956;4.772;2022-08-19T03:19:06;101542.66;;;19.38;100.00
55490;BME280;44029;52.956;4.772;2022-08-19T03:21:33;101544.78;;;19.46;100.00
55490;BME280;44029;52.956;4.772;2022-08-19T03:24:02;101539.88;;;19.38;100.00
55490;BME280;44029;52.956;4.772;2022-08-19T03:26:28;101537.44;;;19.31;100.00
55490;BME280;44029;52.956;4.772;2022-08-19T03:28:55;101544.66;;;19.33;100.00
55490;BME280;44029;52.956;4.772;2022-08-19T03:31:22;101536.81;;;19.40;100.00
55490;BME280;44029;52.956;4.772;2022-08-19T03:33:49;101534.91;;;19.35;100.00
55490;BME280;44029;52.956;4.772;2022-08-19T03:36:20;101531.25;;;19.40;100.00
55490;BME280;44029;52.956;4.772;2022-08-19T03:38:50;101533.19;;;19.39;100.00
55490;BME280;44029;52.956;4.772;2022-08-19T03:41:21;101540.94;;;19.42;100.00
55490;BME280;44029;52.956;4.772;2022-08-19T03:43:47;101524.94;;;19.34;100.00
55490;BME280;44029;52.956;4.772;2022-08-19T03:46:15;101525.50;;;19.31;100.00
55490;BME280;44029;52.956;4.772;2022-08-19T03:48:43;101536.03;;;19.34;100.00
55490;BME280;44029;52.956;4.772;2022-08-19T03:51:21;101535.44;;;19.37;100.00
55490;BME280;44029;52.956;4.772;2022-08-19T03:53:47;101552.72;;;19.34;100.00
55490;BME280;44029;52.956;4.772;2022-08-19T03:56:13;101549.94;;;19.34;100.00
55490;BME280;44029;52.956;4.772;2022-08-19T03:58:40;101544.38;;;19.34;100.00
55490;BME280;44029;52.956;4.772;2022-08-19T04:01:16;101543.97;;;19.46;100.00
55490;BME280;44029;52.956;4.772;2022-08-19T04:03:42;101542.50;;;19.24;100.00
55490;BME280;44029;52.956;4.772;2022-08-19T04:06:10;101539.59;;;19.40;100.00
55490;BME280;44029;52.956;4.772;2022-08-19T04:08:36;101542.13;;;19.36;100.00
55490;BME280;44029;52.956;4.772;2022-08-19T04:11:01;101534.66;;;19.31;100.00
55490;BME280;44029;52.956;4.772;2022-08-19T04:13:31;101539.38;;;19.31;100.00
55490;BME280;44029;52.956;4.772;2022-08-19T04:15:56;101544.97;;;19.26;100.00
55490;BME280;44029;52.956;4.772;2022-08-19T04:18:21;101540.59;;;19.20;100.00
55490;BME280;44029;52.956;4.772;2022-08-19T04:20:47;101540.25;;;19.26;100.00
55490;BME280;44029;52.956;4.772;2022-08-19T04:23:13;101552.72;;;19.34;100.00
55490;BME280;44029;52.956;4.772;2022-08-19T04:25:41;101553.84;;;19.28;100.00
55490;BME280;44029;52.956;4.772;2022-08-19T04:28:09;101560.16;;;19.39;100.00
55490;BME280;44029;52.956;4.772;2022-08-19T04:30:43;101552.50;;;19.55;100.00
55490;BME280;44029;52.956;4.772;2022-08-19T04:33:10;101546.47;;;19.47;100.00
55490;BME280;44029;52.956;4.772;2022-08-19T04:35:41;101544.97;;;19.55;100.00
55490;BME280;44029;52.956;4.772;2022-08-19T04:38:07;101537.19;;;19.57;100.00
55490;BME280;44029;52.956;4.772;2022-08-19T04:40:39;101531.28;;;19.64;100.00
55490;BME280;44029;52.956;4.772;2022-08-19T04:43:27;101527.59;;;19.68;100.00
55490;BME280;44029;52.956;4.772;2022-08-19T04:45:54;101529.53;;;19.73;100.00
55490;BME280;44029;52.956;4.772;2022-08-19T04:48:19;101519.47;;;20.01;100.00
55490;BME280;44029;52.956;4.772;2022-08-19T04:50:56;101523.84;;;20.26;100.00
55490;BME280;44029;52.956;4.772;2022-08-19T04:53:26;101519.59;;;20.53;100.00
55490;BME280;44029;52.956;4.772;2022-08-19T04:55:54;101497.72;;;20.65;100.00
55490;BME280;44029;52.956;4.772;2022-08-19T04:58:19;101485.97;;;21.01;100.00
55490;BME280;44029;52.956;4.772;2022-08-19T05:00:44;101473.03;;;21.24;100.00
55490;BME280;44029;52.956;4.772;2022-08-19T05:03:10;101464.34;;;21.12;100.00
55490;BME280;44029;52.956;4.772;2022-08-19T05:05:43;101458.34;;;21.05;100.00
55490;BME280;44029;52.956;4.772;2022-08-19T05:08:09;101460.56;;;20.89;100.00
55490;BME280;44029;52.956;4.772;2022-08-19T05:10:36;101471.47;;;20.85;100.00
55490;BME280;44029;52.956;4.772;2022-08-19T05:13:03;101467.88;;;21.18;100.00
55490;BME280;44029;52.956;4.772;2022-08-19T05:15:28;101475.06;;;21.52;100.00
55490;BME280;44029;52.956;4.772;2022-08-19T05:17:54;101467.22;;;21.68;100.00
55490;BME280;44029;52.956;4.772;2022-08-19T05:20:38;101462.63;;;21.99;100.00
55490;BME280;44029;52.956;4.772;2022-08-19T05:23:22;101456.59;;;22.20;100.00
55490;BME280;44029;52.956;4.772;2022-08-19T05:25:47;101456.34;;;21.80;100.00
55490;BME280;44029;52.956;4.772;2022-08-19T05:28:12;101459.34;;;21.70;100.00
55490;BME280;44029;52.956;4.772;2022-08-19T05:30:38;101458.09;;;21.34;100.00
55490;BME280;44029;52.956;4.772;2022-08-19T05:33:05;101460.63;;;21.17;100.00
55490;BME280;44029;52.956;4.772;2022-08-19T05:35:31;101470.22;;;21.24;100.00
55490;BME280;44029;52.956;4.772;2022-08-19T05:37:56;101463.84;;;21.24;100.00
55490;BME280;44029;52.956;4.772;2022-08-19T05:40:21;101471.16;;;21.20;100.00
55490;BME280;44029;52.956;4.772;2022-08-19T05:42:47;101478.66;;;21.05;100.00
55490;BME280;44029;52.956;4.772;2022-08-19T05:45:14;101484.88;;;21.02;100.00
55490;BME280;44029;52.956;4.772;2022-08-19T05:47:40;101476.69;;;21.06;100.00
55490;BME280;44029;52.956;4.772;2022-08-19T05:50:05;101477.53;;;21.07;100.00
55490;BME280;44029;52.956;4.772;2022-08-19T05:52:31;101495.91;;;21.08;100.00
55490;BME280;44029;52.956;4.772;2022-08-19T05:54:56;101490.84;;;21.10;100.00
55490;BME280;44029;52.956;4.772;2022-08-19T05:57:22;101489.75;;;21.24;100.00
55490;BME280;44029;52.956;4.772;2022-08-19T05:59:48;101492.31;;;21.21;100.00
55490;BME280;44029;52.956;4.772;2022-08-19T06:02:16;101487.28;;;21.37;100.00
55490;BME280;44029;52.956;4.772;2022-08-19T06:04:41;101488.16;;;21.51;100.00
55490;BME280;44029;52.956;4.772;2022-08-19T06:07:09;101492.38;;;21.49;100.00
55490;BME280;44029;52.956;4.772;2022-08-19T06:09:35;101494.88;;;21.78;100.00
55490;BME280;44029;52.956;4.772;2022-08-19T06:12:00;101488.66;;;21.95;100.00
55490;BME280;44029;52.956;4.772;2022-08-19T06:14:32;101481.22;;;22.04;100.00
55490;BME280;44029;52.956;4.772;2022-08-19T06:17:00;101483.47;;;22.16;100.00
55490;BME280;44029;52.956;4.772;2022-08-19T06:19:27;101482.31;;;22.17;100.00
55490;BME280;44029;52.956;4.772;2022-08-19T06:21:56;101476.84;;;22.39;100.00
55490;BME280;44029;52.956;4.772;2022-08-19T06:24:24;101474.00;;;22.53;100.00
55490;BME280;44029;52.956;4.772;2022-08-19T06:26:51;101472.50;;;22.56;100.00
55490;BME280;44029;52.956;4.772;2022-08-19T06:29:18;101468.53;;;22.71;100.00
55490;BME280;44029;52.956;4.772;2022-08-19T06:31:49;101467.75;;;23.02;100.00
55490;BME280;44029;52.956;4.772;2022-08-19T06:34:16;101467.72;;;23.24;100.00
55490;BME280;44029;52.956;4.772;2022-08-19T06:36:44;101465.03;;;23.42;100.00
55490;BME280;44029;52.956;4.772;2022-08-19T06:39:12;101460.50;;;23.63;100.00
55490;BME280;44029;52.956;4.772;2022-08-19T06:41:41;101456.84;;;24.03;100.00
55490;BME280;44029;52.956;4.772;2022-08-19T06:44:07;101458.50;;;24.30;100.00
55490;BME280;44029;52.956;4.772;2022-08-19T06:46:33;101446.19;;;24.57;100.00
55490;BME280;44029;52.956;4.772;2022-08-19T06:48:59;101431.41;;;25.04;100.00
55490;BME280;44029;52.956;4.772;2022-08-19T06:51:25;101421.91;;;24.87;100.00
55490;BME280;44029;52.956;4.772;2022-08-19T06:53:52;101410.97;;;25.51;100.00
55490;BME280;44029;52.956;4.772;2022-08-19T06:56:20;101406.25;;;27.02;100.00
55490;BME280;44029;52.956;4.772;2022-08-19T06:58:47;101397.66;;;26.19;100.00
55490;BME280;44029;52.956;4.772;2022-08-19T07:01:19;101406.84;;;25.48;100.00
55490;BME280;44029;52.956;4.772;2022-08-19T07:03:45;101410.16;;;25.03;100.00
55490;BME280;44029;52.956;4.772;2022-08-19T07:06:13;101430.66;;;24.86;100.00
55490;BME280;44029;52.956;4.772;2022-08-19T07:08:40;101433.41;;;24.95;100.00
55490;BME280;44029;52.956;4.772;2022-08-19T07:11:09;101432.84;;;25.19;100.00
55490;BME280;44029;52.956;4.772;2022-08-19T07:13:36;101434.41;;;24.99;100.00
55490;BME280;44029;52.956;4.772;2022-08-19T07:16:11;101426.97;;;25.80;100.00
55490;BME280;44029;52.956;4.772;2022-08-19T07:18:37;101425.72;;;25.69;100.00
55490;BME280;44029;52.956;4.772;2022-08-19T07:21:05;101426.19;;;25.71;100.00
55490;BME280;44029;52.956;4.772;2022-08-19T07:23:31;101423.94;;;25.64;100.00
55490;BME280;44029;52.956;4.772;2022-08-19T07:25:57;101423.19;;;25.76;100.00
55490;BME280;44029;52.956;4.772;2022-08-19T07:28:22;101407.06;;;25.73;100.00
55490;BME280;44029;52.956;4.772;2022-08-19T07:30:48;101412.72;;;25.85;100.00
55490;BME280;44029;52.956;4.772;2022-08-19T07:33:14;101408.69;;;25.44;100.00
55490;BME280;44029;52.956;4.772;2022-08-19T07:35:40;101419.13;;;25.35;100.00
55490;BME280;44029;52.956;4.772;2022-08-19T07:38:05;101425.59;;;25.18;100.00
55490;BME280;44029;52.956;4.772;2022-08-19T07:40:31;101424.44;;;25.27;100.00
55490;BME280;44029;52.956;4.772;2022-08-19T07:42:56;101420.97;;;25.60;100.00
55490;BME280;44029;52.956;4.772;2022-08-19T07:45:22;101413.19;;;26.17;100.00
55490;BME280;44029;52.956;4.772;2022-08-19T07:47:47;101414.34;;;25.95;100.00
55490;BME280;44029;52.956;4.772;2022-08-19T07:50:12;101418.50;;;25.89;100.00
55490;BME280;44029;52.956;4.772;2022-08-19T07:52:38;101419.03;;;25.52;100.00
55490;BME280;44029;52.956;4.772;2022-08-19T07:55:06;101428.81;;;25.76;100.00
55490;BME280;44029;52.956;4.772;2022-08-19T07:57:32;101433.78;;;25.40;100.00
55490;BME280;44029;52.956;4.772;2022-08-19T07:59:57;101437.66;;;26.16;100.00
55490;BME280;44029;52.956;4.772;2022-08-19T08:02:23;101421.28;;;27.06;100.00
55490;BME280;44029;52.956;4.772;2022-08-19T08:04:48;101404.53;;;27.84;100.00
55490;BME280;44029;52.956;4.772;2022-08-19T08:07:32;101394.94;;;28.25;100.00
55490;BME280;44029;52.956;4.772;2022-08-19T08:10:16;101390.63;;;28.72;100.00
55490;BME280;44029;52.956;4.772;2022-08-19T08:12:41;101392.06;;;28.38;100.00
55490;BME280;44029;52.956;4.772;2022-08-19T08:15:13;101387.63;;;28.24;100.00
55490;BME280;44029;52.956;4.772;2022-08-19T08:17:42;101388.44;;;27.96;100.00
55490;BME280;44029;52.956;4.772;2022-08-19T08:20:08;101390.94;;;28.26;100.00
55490;BME280;44029;52.956;4.772;2022-08-19T08:22:34;101395.75;;;28.82;100.00
55490;BME280;44029;52.956;4.772;2022-08-19T08:25:21;101403.41;;;28.13;100.00
55490;BME280;44029;52.956;4.772;2022-08-19T08:27:48;101399.41;;;27.49;100.00
55490;BME280;44029;52.956;4.772;2022-08-19T08:30:25;101400.59;;;28.13;100.00
55490;BME280;44029;52.956;4.772;2022-08-19T08:32:52;101397.75;;;28.53;100.00
55490;BME280;44029;52.956;4.772;2022-08-19T08:35:20;101406.44;;;28.61;100.00
55490;BME280;44029;52.956;4.772;2022-08-19T08:37:48;101404.50;;;29.41;100.00
55490;BME280;44029;52.956;4.772;2022-08-19T08:40:22;101403.19;;;28.75;100.00
55490;BME280;44029;52.956;4.772;2022-08-19T08:43:00;101409.69;;;28.91;100.00
55490;BME280;44029;52.956;4.772;2022-08-19T08:45:28;101406.34;;;29.17;100.00
55490;BME280;44029;52.956;4.772;2022-08-19T08:47:57;101410.88;;;29.06;100.00
55490;BME280;44029;52.956;4.772;2022-08-19T08:50:32;101409.53;;;29.16;100.00
55490;BME280;44029;52.956;4.772;2022-08-19T08:53:05;101406.66;;;29.63;100.00
55490;BME280;44029;52.956;4.772;2022-08-19T08:55:32;101413.94;;;28.85;100.00
55490;BME280;44029;52.956;4.772;2022-08-19T09:00:31;101412.59;;;29.10;100.00
55490;BME280;44029;52.956;4.772;2022-08-19T09:02:58;101412.47;;;28.75;100.00
55490;BME280;44029;52.956;4.772;2022-08-19T09:05:32;101409.75;;;28.79;100.00
55490;BME280;44029;52.956;4.772;2022-08-19T09:08:08;101414.19;;;28.80;100.00
55490;BME280;44029;52.956;4.772;2022-08-19T09:10:39;101413.66;;;28.33;100.00
55490;BME280;44029;52.956;4.772;2022-08-19T09:13:23;101421.47;;;28.81;100.00
55490;BME280;44029;52.956;4.772;2022-08-19T09:15:56;101414.72;;;28.69;100.00
55490;BME280;44029;52.956;4.772;2022-08-19T09:18:23;101423.28;;;28.73;100.00
55490;BME280;44029;52.956;4.772;2022-08-19T09:20:48;101424.25;;;27.84;100.00
55490;BME280;44029;52.956;4.772;2022-08-19T09:23:14;101448.50;;;27.76;100.00
55490;BME280;44029;52.956;4.772;2022-08-19T09:25:39;101440.06;;;27.76;100.00
55490;BME280;44029;52.956;4.772;2022-08-19T09:28:06;101444.78;;;27.47;100.00
55490;BME280;44029;52.956;4.772;2022-08-19T09:30:37;101445.38;;;27.65;100.00
55490;BME280;44029;52.956;4.772;2022-08-19T09:33:04;101447.69;;;26.93;100.00
55490;BME280;44029;52.956;4.772;2022-08-19T09:35:30;101446.75;;;26.89;100.00
55490;BME280;44029;52.956;4.772;2022-08-19T09:37:57;101456.75;;;26.65;100.00
55490;BME280;44029;52.956;4.772;2022-08-19T09:40:23;101459.84;;;26.30;100.00
55490;BME280;44029;52.956;4.772;2022-08-19T09:42:49;101461.34;;;26.70;100.00
55490;BME280;44029;52.956;4.772;2022-08-19T09:45:17;101463.50;;;26.85;100.00
55490;BME280;44029;52.956;4.772;2022-08-19T09:47:46;101465.94;;;26.53;100.00
55490;BME280;44029;52.956;4.772;2022-08-19T09:50:12;101462.72;;;26.64;100.00
55490;BME280;44029;52.956;4.772;2022-08-19T09:52:38;101476.25;;;27.16;100.00
55490;BME280;44029;52.956;4.772;2022-08-19T09:55:08;101461.75;;;27.26;100.00
55490;BME280;44029;52.956;4.772;2022-08-19T09:57:34;101469.97;;;26.98;100.00
55490;BME280;44029;52.956;4.772;2022-08-19T10:00:00;101474.56;;;27.36;100.00
55490;BME280;44029;52.956;4.772;2022-08-19T10:02:25;101468.59;;;27.37;100.00
55490;BME280;44029;52.956;4.772;2022-08-19T10:04:51;101477.59;;;27.31;100.00
55490;BME280;44029;52.956;4.772;2022-08-19T10:07:36;101469.44;;;27.17;100.00
55490;BME280;44029;52.956;4.772;2022-08-19T10:10:03;101477.09;;;26.41;100.00
55490;BME280;44029;52.956;4.772;2022-08-19T10:12:29;101482.47;;;26.34;100.00
55490;BME280;44029;52.956;4.772;2022-08-19T10:14:55;101470.09;;;26.89;100.00
55490;BME280;44029;52.956;4.772;2022-08-19T10:17:20;101473.91;;;27.18;100.00
55490;BME280;44029;52.956;4.772;2022-08-19T10:19:46;101473.00;;;26.93;100.00
55490;BME280;44029;52.956;4.772;2022-08-19T10:22:12;101473.47;;;26.83;100.00
55490;BME280;44029;52.956;4.772;2022-08-19T10:24:39;101475.72;;;27.35;100.00
55490;BME280;44029;52.956;4.772;2022-08-19T10:27:04;101466.84;;;27.82;100.00
55490;BME280;44029;52.956;4.772;2022-08-19T10:29:31;101462.59;;;27.88;100.00
55490;BME280;44029;52.956;4.772;2022-08-19T10:31:58;101471.28;;;27.71;100.00
55490;BME280;44029;52.956;4.772;2022-08-19T10:34:23;101474.66;;;27.52;100.00
55490;BME280;44029;52.956;4.772;2022-08-19T10:36:49;101473.25;;;27.33;100.00
55490;BME280;44029;52.956;4.772;2022-08-19T10:39:14;101466.34;;;27.68;100.00
55490;BME280;44029;52.956;4.772;2022-08-19T10:41:40;101475.03;;;27.63;100.00
55490;BME280;44029;52.956;4.772;2022-08-19T10:44:09;101472.81;;;27.68;100.00
55490;BME280;44029;52.956;4.772;2022-08-19T10:46:37;101474.81;;;27.80;100.00
55490;BME280;44029;52.956;4.772;2022-08-19T10:49:05;101457.03;;;28.17;100.00
55490;BME280;44029;52.956;4.772;2022-08-19T10:51:31;101474.53;;;27.85;100.00
55490;BME280;44029;52.956;4.772;2022-08-19T10:54:16;101471.75;;;27.61;100.00
55490;BME280;44029;52.956;4.772;2022-08-19T10:56:42;101477.03;;;27.74;100.00
55490;BME280;44029;52.956;4.772;2022-08-19T10:59:21;101471.53;;;28.03;100.00
55490;BME280;44029;52.956;4.772;2022-08-19T11:01:48;101474.13;;;27.71;100.00
55490;BME280;44029;52.956;4.772;2022-08-19T11:04:14;101466.94;;;27.73;100.00
55490;BME280;44029;52.956;4.772;2022-08-19T11:06:46;101467.63;;;27.70;100.00
55490;BME280;44029;52.956;4.772;2022-08-19T11:09:17;101469.19;;;27.80;100.00
55490;BME280;44029;52.956;4.772;2022-08-19T11:11:43;101472.22;;;27.75;100.00
55490;BME280;44029;52.956;4.772;2022-08-19T11:14:12;101472.81;;;27.44;100.00
55490;BME280;44029;52.956;4.772;2022-08-19T11:16:39;101473.41;;;27.62;100.00
55490;BME280;44029;52.956;4.772;2022-08-19T11:19:06;101483.94;;;27.40;100.00
55490;BME280;44029;52.956;4.772;2022-08-19T11:21:35;101483.88;;;27.15;100.00
55490;BME280;44029;52.956;4.772;2022-08-19T11:24:05;101475.03;;;27.63;100.00
55490;BME280;44029;52.956;4.772;2022-08-19T11:26:31;101480.31;;;27.52;100.00
55490;BME280;44029;52.956;4.772;2022-08-19T11:28:58;101484.19;;;27.96;100.00
55490;BME280;44029;52.956;4.772;2022-08-19T11:31:30;101471.63;;;27.82;100.00
55490;BME280;44029;52.956;4.772;2022-08-19T11:33:56;101468.22;;;27.76;100.00
55490;BME280;44029;52.956;4.772;2022-08-19T11:36:22;101473.50;;;27.41;100.00
55490;BME280;44029;52.956;4.772;2022-08-19T11:38:48;101469.03;;;27.27;100.00
55490;BME280;44029;52.956;4.772;2022-08-19T11:41:16;101473.06;;;27.05;100.00
55490;BME280;44029;52.956;4.772;2022-08-19T11:43:42;101482.16;;;26.90;100.00
55490;BME280;44029;52.956;4.772;2022-08-19T11:46:11;101475.72;;;27.35;100.00
55490;BME280;44029;52.956;4.772;2022-08-19T11:48:37;101475.06;;;27.17;100.00
55490;BME280;44029;52.956;4.772;2022-08-19T11:51:05;101479.34;;;27.35;100.00
55490;BME280;44029;52.956;4.772;2022-08-19T11:53:35;101479.84;;;27.04;100.00
55490;BME280;44029;52.956;4.772;2022-08-19T11:56:01;101480.94;;;27.12;100.00
55490;BME280;44029;52.956;4.772;2022-08-19T11:58:27;101483.44;;;27.26;100.00
55490;BME280;44029;52.956;4.772;2022-08-19T12:00:52;101489.38;;;27.24;100.00
55490;BME280;44029;52.956;4.772;2022-08-19T12:03:18;101497.09;;;27.15;100.00
55490;BME280;44029;52.956;4.772;2022-08-19T12:05:45;101478.19;;;27.36;100.00
55490;BME280;44029;52.956;4.772;2022-08-19T12:08:10;101488.19;;;27.13;100.00
55490;BME280;44029;52.956;4.772;2022-08-19T12:10:39;101495.50;;;27.26;100.00
55490;BME280;44029;52.956;4.772;2022-08-19T12:13:05;101493.09;;;27.04;100.00
55490;BME280;44029;52.956;4.772;2022-08-19T12:15:38;101492.19;;;27.12;100.00
55490;BME280;44029;52.956;4.772;2022-08-19T12:18:06;101495.75;;;27.00;100.00
55490;BME280;44029;52.956;4.772;2022-08-19T12:20:35;101492.19;;;27.24;100.00
55490;BME280;44029;52.956;4.772;2022-08-19T12:23:01;101494.00;;;27.29;100.00
55490;BME280;44029;52.956;4.772;2022-08-19T12:25:26;101497.09;;;26.81;100.00
55490;BME280;44029;52.956;4.772;2022-08-19T12:27:52;101493.41;;;27.02;100.00
55490;BME280;44029;52.956;4.772;2022-08-19T12:30:17;101492.94;;;27.00;100.00
55490;BME280;44029;52.956;4.772;2022-08-19T12:32:42;101495.75;;;27.00;100.00
55490;BME280;44029;52.956;4.772;2022-08-19T12:35:08;101497.53;;;27.05;100.00
55490;BME280;44029;52.956;4.772;2022-08-19T12:37:36;101494.03;;;27.08;100.00
55490;BME280;44029;52.956;4.772;2022-08-19T12:40:02;101489.38;;;27.24;100.00
55490;BME280;44029;52.956;4.772;2022-08-19T12:42:28;101477.19;;;27.20;100.00
55490;BME280;44029;52.956;4.772;2022-08-19T12:44:54;101475.97;;;27.42;100.00